Time,TemperatureF,DewpointF,PressureIn,WindDirection,WindDirectionDegrees,WindSpeedMPH,WindSpeedGustMPH,Humidity,HourlyPrecipIn,Conditions,Clouds,dailyrainin,SoftwareType,DateUTC
2013-01-31 08:00:00,-27.6,-32.4,0.00,North,3,0.0,0.0,77,0.00,,CL,0.00,WeatherDisplay:10.37,2013-01-31 17:00:00,
2013-01-31 09:00:00,-28.2,-32.9,0.00,North,3,0.0,0.0,77,0.00,CL,CL,0.00,WeatherDisplay:10.37,2013-01-31 18:00:00,
2013-01-31 10:00:00,-27.4,-32.7,0.00,North,3,0.0,0.0,75,0.00,CL,CL,0.00,WeatherDisplay:10.37,2013-01-31 19:00:00,
2013-01-31 11:00:00,-28.4,-33.4,0.00,North,3,0.0,0.0,76,0.00,CL,CL,0.00,WeatherDisplay:10.37,2013-01-31 20:00:00,
2013-01-31 12:00:00,-30.4,-35.4,0.00,North,3,0.0,0.0,76,0.00,CL,CL,0.00,WeatherDisplay:10.37,2013-01-31 21:00:00,
2013-01-31 13:00:00,-30.8,-35.5,0.00,North,3,0.0,0.0,77,0.00,CL,CL,0.00,WeatherDisplay:10.37,2013-01-31 22:00:00,
2013-01-31 14:00:00,-30.0,-34.7,0.00,North,3,0.0,0.0,77,0.00,CL,CL,0.00,WeatherDisplay:10.37,2013-01-31 23:00:00,
2013-01-31 16:41:00,9.1,6.3,0.00,WSW,253,0.0,0.0,88,0.00,CLR,,0.00,WeatherDisplay:10.37,2013-02-01 01:41:00,
2013-01-31 16:50:00,9.0,6.4,0.00,WSW,253,0.0,0.0,89,0.00,CLR,,0.00,WeatherDisplay:10.37,2013-02-01 01:50:00,
2013-01-31 17:15:00,8.7,6.1,0.00,WSW,253,0.0,0.0,89,0.00,CLR,,0.00,WeatherDisplay:10.37,2013-02-01 02:15:00,
2013-01-31 17:30:00,8.8,6.3,0.00,WSW,253,0.0,0.0,89,0.00,CLR,,0.00,WeatherDisplay:10.37,2013-02-01 02:30:00,
2013-01-31 17:45:00,9.0,6.4,0.00,WSW,253,0.0,0.0,89,0.00,CLR,,0.00,WeatherDisplay:10.37,2013-02-01 02:45:00,
2013-01-31 18:00:00,8.9,6.3,0.00,WSW,253,0.0,0.0,89,0.00,CLR,,0.00,WeatherDisplay:10.37,2013-02-01 03:00:00,
2013-01-31 18:15:00,8.5,5.9,0.00,WSW,253,0.0,0.0,89,0.00,CLR,,0.00,WeatherDisplay:10.37,2013-02-01 03:15:00,
2013-01-31 18:30:00,8.3,6.0,0.00,WSW,253,0.0,0.0,90,0.00,CLR,,0.00,WeatherDisplay:10.37,2013-02-01 03:30:00,
2013-01-31 18:45:00,8.1,5.7,0.00,WSW,253,0.0,0.0,90,0.00,CLR,,0.00,WeatherDisplay:10.37,2013-02-01 03:45:00,
2013-01-31 19:00:00,7.9,5.6,0.00,WSW,253,0.0,0.0,90,0.00,CLR,,0.00,WeatherDisplay:10.37,2013-02-01 04:00:00,
2013-01-31 19:15:00,8.0,5.7,0.00,WSW,253,0.0,0.0,90,0.00,CLR,,0.00,WeatherDisplay:10.37,2013-02-01 04:15:00,
2013-01-31 19:30:00,7.9,5.6,0.00,WSW,253,0.0,0.0,90,0.00,CLR,,0.00,WeatherDisplay:10.37,2013-02-01 04:30:00,
2013-01-31 19:45:00,7.5,5.2,0.00,WSW,253,0.0,0.0,90,0.00,CLR,,0.00,WeatherDisplay:10.37,2013-02-01 04:45:00,
2013-01-31 20:00:00,7.3,4.8,0.00,WSW,253,0.0,0.0,89,0.00,CLR,,0.00,WeatherDisplay:10.37,2013-02-01 05:00:00,
2013-01-31 20:15:00,7.2,4.6,0.00,WSW,253,0.0,0.0,89,0.00,CLR,,0.00,WeatherDisplay:10.37,2013-02-01 05:15:00,
2013-01-31 20:30:00,7.1,4.8,0.00,WSW,253,0.0,0.0,90,0.00,CLR,,0.00,WeatherDisplay:10.37,2013-02-01 05:30:00,
2013-01-31 20:45:00,7.1,4.8,0.00,WSW,253,0.0,0.0,90,0.00,CLR,,0.00,WeatherDisplay:10.37,2013-02-01 05:45:00,
2013-01-31 21:00:00,7.3,5.2,0.00,WSW,253,0.0,0.0,91,0.00,CLR,,0.00,WeatherDisplay:10.37,2013-02-01 06:00:00,
2013-01-31 21:15:00,7.4,5.1,0.00,WSW,253,0.0,0.0,90,0.00,CLR,,0.00,WeatherDisplay:10.37,2013-02-01 06:15:00,
2013-01-31 21:30:00,7.5,5.2,0.00,WSW,253,0.0,0.0,90,0.00,CLR,,0.00,WeatherDisplay:10.37,2013-02-01 06:30:00,
2013-01-31 21:45:00,7.6,5.3,0.00,WSW,253,0.0,0.0,90,0.00,CLR,,0.00,WeatherDisplay:10.37,2013-02-01 06:45:00,
2013-01-31 22:00:00,7.7,5.4,0.00,WSW,253,0.0,0.0,90,0.00,CLR,,0.00,WeatherDisplay:10.37,2013-02-01 07:00:00,
2013-01-31 22:15:00,7.7,5.4,0.00,WSW,253,0.0,0.0,90,0.00,CLR,,0.00,WeatherDisplay:10.37,2013-02-01 07:15:00,
2013-01-31 22:30:00,7.8,5.2,0.00,WSW,253,0.0,0.0,89,0.00,CLR,,0.00,WeatherDisplay:10.37,2013-02-01 07:30:00,
2013-01-31 22:45:00,7.8,5.3,0.00,WSW,253,0.0,0.0,89,0.00,CLR,,0.00,WeatherDisplay:10.37,2013-02-01 07:45:00,
2013-01-31 23:00:00,7.9,5.6,0.00,WSW,253,0.0,0.0,90,0.00,CLR,,0.00,WeatherDisplay:10.37,2013-02-01 08:00:00,
2013-01-31 23:15:00,7.9,5.6,0.00,WSW,253,0.0,0.0,90,0.00,CLR,,0.00,WeatherDisplay:10.37,2013-02-01 08:15:00,
2013-01-31 23:30:00,7.9,5.6,0.00,WSW,253,0.0,0.0,90,0.00,CLR,,0.00,WeatherDisplay:10.37,2013-02-01 08:30:00,
2013-01-31 23:45:00,7.9,5.5,0.00,WSW,253,0.0,0.0,90,0.00,CLR,,0.00,WeatherDisplay:10.37,2013-02-01 08:45:00,